createdAt,value
2019-04-19T00:02:44.638Z,100720.00
2019-04-19T00:05:43.058Z,100720.38
2019-04-19T00:08:32.490Z,100712.27
2019-04-19T00:11:09.700Z,100710.53
2019-04-19T00:13:39.302Z,100721.55
2019-04-19T00:16:29.914Z,100710.89
2019-04-19T00:19:30.592Z,100712.16
2019-04-19T00:22:24.008Z,100710.86
2019-04-19T00:24:33.415Z,100706.59
2019-04-19T00:27:16.252Z,100712.13
2019-04-19T00:30:17.985Z,100710.39
2019-04-19T00:33:13.662Z,100705.27
2019-04-19T00:35:41.282Z,100706.94
2019-04-19T00:38:36.933Z,100704.80
2019-04-19T00:44:30.556Z,100707.35
2019-04-19T00:47:05.394Z,100707.30
2019-04-19T00:49:34.696Z,100709.44
2019-04-19T00:52:32.567Z,100708.56
2019-04-19T00:55:04.265Z,100708.06
2019-04-19T00:57:43.795Z,100705.06
2019-04-19T01:01:07.313Z,100710.59
2019-04-19T01:03:47.114Z,100706.31
2019-04-19T01:06:35.787Z,100709.31
2019-04-19T01:09:23.773Z,100710.17
2019-04-19T01:12:07.939Z,100712.28
2019-04-19T01:14:47.080Z,100713.53
2019-04-19T01:17:33.642Z,100707.98
2019-04-19T01:20:02.051Z,100705.45
2019-04-19T01:22:39.999Z,100707.95
2019-04-19T01:25:30.911Z,100713.88
2019-04-19T01:28:17.851Z,100715.55
2019-04-19T01:30:57.036Z,100714.24
2019-04-19T01:33:37.931Z,100718.08
2019-04-19T01:36:20.797Z,100717.69
2019-04-19T01:39:19.156Z,100714.30
2019-04-19T01:41:56.070Z,100710.61
2019-04-19T01:44:53.380Z,100708.09
2019-04-19T01:47:46.655Z,100699.53
2019-04-19T01:50:52.121Z,100704.59
2019-04-19T01:53:25.498Z,100703.31
2019-04-19T01:56:04.309Z,100710.14
2019-04-19T01:58:44.676Z,100709.34
2019-04-19T02:01:25.898Z,100710.61
2019-04-19T02:04:07.420Z,100712.67
2019-04-19T02:06:49.576Z,100717.69
2019-04-19T02:09:42.110Z,100711.75
2019-04-19T02:12:27.352Z,100708.78
2019-04-19T02:15:02.738Z,100713.44
2019-04-19T02:17:44.902Z,100722.77
2019-04-19T02:20:27.859Z,100717.59
2019-04-19T02:23:10.893Z,100718.39
2019-04-19T02:25:53.229Z,100718.30
2019-04-19T02:28:37.763Z,100714.44
2019-04-19T02:31:37.853Z,100720.81
2019-04-19T02:34:29.221Z,100727.12
2019-04-19T02:42:42.331Z,100727.28
2019-04-19T02:47:55.867Z,100731.79
2019-04-19T02:53:22.499Z,100732.94
2019-04-19T02:56:39.909Z,100725.33
2019-04-19T03:02:04.446Z,100732.12
2019-04-19T03:04:45.595Z,100734.86
2019-04-19T03:06:56.164Z,100738.72
2019-04-19T03:09:39.323Z,100742.17
2019-04-19T03:12:37.936Z,100741.39
2019-04-19T03:15:13.813Z,100745.11
2019-04-19T03:18:11.972Z,100747.50
2019-04-19T03:20:37.493Z,100744.88
2019-04-19T03:23:19.335Z,100747.30
2019-04-19T03:25:59.332Z,100755.23
2019-04-19T03:28:41.727Z,100756.82
2019-04-19T03:31:51.253Z,100754.27
2019-04-19T03:34:38.475Z,100753.98
2019-04-19T03:36:54.721Z,100760.68
2019-04-19T03:39:44.278Z,100756.40
2019-04-19T03:43:04.538Z,100762.09
2019-04-19T03:48:35.104Z,100759.91
2019-04-19T03:56:36.214Z,100776.47
2019-04-19T03:58:58.815Z,100779.42
2019-04-19T04:01:41.266Z,100778.09
2019-04-19T04:04:23.364Z,100784.88
2019-04-19T04:07:07.191Z,100788.28
2019-04-19T04:10:04.958Z,100785.33
2019-04-19T04:16:17.254Z,100789.55
2019-04-19T04:18:47.305Z,100795.47
2019-04-19T04:21:43.369Z,100791.64
2019-04-19T04:24:34.557Z,100791.23
2019-04-19T04:27:26.212Z,100802.50
2019-04-19T04:30:01.489Z,100799.14
2019-04-19T04:32:42.829Z,100799.24
2019-04-19T04:35:30.415Z,100804.44
2019-04-19T04:38:05.879Z,100803.38
2019-04-19T04:40:40.194Z,100806.07
2019-04-19T04:43:37.011Z,100813.94
2019-04-19T04:49:44.761Z,100812.62
2019-04-19T04:52:22.033Z,100819.94
2019-04-19T04:57:42.966Z,100822.34
2019-04-19T05:00:14.160Z,100821.55
2019-04-19T05:03:23.190Z,100827.59
2019-04-19T05:06:17.672Z,100834.88
2019-04-19T05:08:56.676Z,100828.23
2019-04-19T05:11:40.475Z,100833.53
2019-04-19T05:14:20.717Z,100839.20
2019-04-19T05:17:24.513Z,100833.67
2019-04-19T05:19:51.494Z,100831.59
2019-04-19T05:22:26.469Z,100833.36
2019-04-19T05:25:19.723Z,100836.46
2019-04-19T05:27:55.635Z,100837.02
2019-04-19T05:30:19.586Z,100831.17
2019-04-19T05:33:08.332Z,100837.22
2019-04-19T05:39:03.044Z,100838.22
2019-04-19T05:50:39.715Z,100851.11
2019-04-19T05:53:21.490Z,100849.00
2019-04-19T05:55:52.103Z,100851.16
2019-04-19T05:58:40.939Z,100851.64
2019-04-19T06:01:30.414Z,100852.94
2019-04-19T06:04:18.266Z,100854.23
2019-04-19T06:06:56.978Z,100849.11
2019-04-19T06:09:23.940Z,100855.09
2019-04-19T06:12:12.602Z,100858.97
2019-04-19T06:15:08.100Z,100865.83
2019-04-19T06:18:00.751Z,100855.97
2019-04-19T06:20:44.903Z,100860.67
2019-04-19T06:23:29.781Z,100861.08
2019-04-19T06:26:42.178Z,100863.63
2019-04-19T06:29:01.708Z,100862.72
2019-04-19T06:31:43.185Z,100857.56
2019-04-19T06:34:22.325Z,100865.66
2019-04-19T06:36:57.596Z,100871.60
2019-04-19T06:39:27.083Z,100867.66
2019-04-19T06:42:22.901Z,100868.50
2019-04-19T06:45:20.350Z,100868.38
2019-04-19T06:47:52.912Z,100867.91
2019-04-19T06:50:34.486Z,100870.05
2019-04-19T06:53:12.151Z,100869.59
2019-04-19T06:56:07.834Z,100875.64
2019-04-19T06:58:48.808Z,100878.19
2019-04-19T07:01:33.348Z,100876.41
2019-04-19T07:04:00.004Z,100875.89
2019-04-19T07:07:05.560Z,100877.55
2019-04-19T07:09:50.505Z,100873.63
2019-04-19T07:12:30.225Z,100872.30
2019-04-19T07:15:23.767Z,100872.12
2019-04-19T07:17:55.811Z,100871.09
2019-04-19T07:20:34.906Z,100871.45
2019-04-19T07:23:16.164Z,100869.15
2019-04-19T07:25:59.547Z,100872.72
2019-04-19T07:31:08.419Z,100879.48
2019-04-19T07:34:08.765Z,100873.87
2019-04-19T07:36:57.272Z,100879.62
2019-04-19T07:39:49.459Z,100869.98
2019-04-19T07:42:40.735Z,100874.23
2019-04-19T07:45:10.667Z,100876.34
2019-04-19T07:47:56.438Z,100884.95
2019-04-19T07:50:34.199Z,100887.33
2019-04-19T07:53:10.305Z,100884.48
2019-04-19T07:56:01.732Z,100888.14
2019-04-19T08:07:01.017Z,100886.30
2019-04-19T08:09:43.166Z,100883.33
2019-04-19T08:12:40.236Z,100885.97
2019-04-19T08:15:17.065Z,100879.51
2019-04-19T08:28:13.255Z,100869.52
2019-04-19T08:30:48.717Z,100870.45
2019-04-19T08:33:29.697Z,100869.71
2019-04-19T08:36:23.042Z,100871.16
2019-04-19T08:39:11.624Z,100863.77
2019-04-19T08:42:02.947Z,100866.23
2019-04-19T08:44:37.682Z,100864.04
2019-04-19T08:47:27.894Z,100872.48
2019-04-19T08:50:18.096Z,100862.25
2019-04-19T08:53:01.550Z,100866.87
2019-04-19T08:55:55.999Z,100864.55
2019-04-19T08:58:37.619Z,100864.56
2019-04-19T09:01:26.817Z,100864.44
2019-04-19T09:04:08.306Z,100860.09
2019-04-19T09:09:35.353Z,100862.64
2019-04-19T09:12:18.725Z,100862.53
2019-04-19T09:14:57.171Z,100862.77
2019-04-19T09:17:57.210Z,100863.63
2019-04-19T09:20:30.344Z,100860.44
2019-04-19T09:23:20.967Z,100859.45
2019-04-19T09:26:03.522Z,100852.65
2019-04-19T09:29:00.062Z,100852.56
2019-04-19T09:31:26.486Z,100836.45
2019-04-19T09:34:01.736Z,100837.53
2019-04-19T09:36:44.945Z,100840.70
2019-04-19T09:39:39.715Z,100832.05
2019-04-19T09:42:18.145Z,100826.00
2019-04-19T09:44:56.319Z,100829.22
2019-04-19T09:47:52.818Z,100824.54
2019-04-19T09:50:59.857Z,100823.16
2019-04-19T09:53:49.936Z,100823.97
2019-04-19T09:56:27.094Z,100816.19
2019-04-19T09:59:06.232Z,100817.64
2019-04-19T10:01:41.752Z,100817.67
2019-04-19T10:04:20.863Z,100815.62
2019-04-19T10:07:02.974Z,100816.66
2019-04-19T10:09:58.552Z,100819.48
2019-04-19T10:12:33.618Z,100812.57
2019-04-19T10:15:34.454Z,100806.59
2019-04-19T10:18:24.914Z,100809.36
2019-04-19T10:24:00.955Z,100800.16
2019-04-19T10:27:01.105Z,100803.78
2019-04-19T10:29:41.783Z,100794.55
2019-04-19T10:32:40.565Z,100794.34
2019-04-19T10:35:31.504Z,100788.98
2019-04-19T10:38:21.998Z,100788.84
2019-04-19T10:41:11.896Z,100779.48
2019-04-19T10:44:10.376Z,100783.72
2019-04-19T10:46:44.910Z,100779.84
2019-04-19T10:49:44.051Z,100776.03
2019-04-19T10:52:37.388Z,100780.28
2019-04-19T10:58:17.011Z,100767.09
2019-04-19T11:03:57.032Z,100764.43
2019-04-19T11:06:39.889Z,100758.45
2019-04-19T11:09:31.076Z,100759.59
2019-04-19T11:12:21.956Z,100762.61
2019-04-19T11:15:00.098Z,100755.97
2019-04-19T11:17:43.452Z,100752.90
2019-04-19T11:20:34.368Z,100753.91
2019-04-19T11:23:08.450Z,100742.31
2019-04-19T11:25:58.920Z,100745.09
2019-04-19T11:28:49.738Z,100745.55
2019-04-19T11:31:59.696Z,100744.78
2019-04-19T11:37:20.443Z,100734.31
2019-04-19T11:43:14.961Z,100741.42
2019-04-19T11:46:06.281Z,100727.92
2019-04-19T11:48:49.885Z,100729.96
2019-04-19T11:51:32.342Z,100724.48
2019-04-19T11:54:22.157Z,100731.91
2019-04-19T11:57:19.011Z,100721.70
2019-04-19T12:00:28.108Z,100723.67
2019-04-19T12:03:22.297Z,100715.98
2019-04-19T12:06:04.935Z,100713.50
2019-04-19T12:08:54.743Z,100714.17
2019-04-19T12:11:44.724Z,100701.13
2019-04-19T12:14:34.557Z,100711.43
2019-04-19T12:17:25.248Z,100717.45
2019-04-19T12:20:09.544Z,100704.87
2019-04-19T12:22:40.401Z,100711.92
2019-04-19T12:25:30.199Z,100708.69
2019-04-19T12:28:01.626Z,100713.95
2019-04-19T12:30:55.031Z,100700.53
2019-04-19T12:33:35.564Z,100693.38
2019-04-19T12:36:25.612Z,100690.41
2019-04-19T12:39:16.678Z,100695.00
2019-04-19T12:41:59.788Z,100687.25
2019-04-19T12:44:46.037Z,100681.45
2019-04-19T12:47:31.133Z,100683.08
2019-04-19T12:53:10.617Z,100676.55
2019-04-19T12:56:00.467Z,100670.78
2019-04-19T13:02:15.745Z,100666.64
2019-04-19T13:05:12.045Z,100663.34
2019-04-19T13:08:03.130Z,100665.00
2019-04-19T13:10:44.961Z,100655.12
2019-04-19T13:13:36.049Z,100653.23
2019-04-19T13:16:26.353Z,100657.03
2019-04-19T13:19:17.117Z,100649.34
2019-04-19T13:22:08.269Z,100638.95
2019-04-19T13:24:52.246Z,100641.97
2019-04-19T13:27:43.897Z,100640.22
2019-04-19T13:33:32.469Z,100628.61
2019-04-19T13:36:42.816Z,100625.94
2019-04-19T13:39:52.215Z,100622.95
2019-04-19T13:42:42.435Z,100623.01
2019-04-19T13:45:34.532Z,100621.98
2019-04-19T13:48:10.498Z,100619.45
2019-04-19T13:50:49.982Z,100629.06
2019-04-19T13:53:33.033Z,100619.48
2019-04-19T13:56:22.926Z,100619.34
2019-04-19T13:59:14.195Z,100609.11
2019-04-19T14:01:56.587Z,100613.61
2019-04-19T14:04:37.798Z,100607.69
2019-04-19T14:07:28.311Z,100610.55
2019-04-19T14:10:19.108Z,100606.34
2019-04-19T14:13:01.474Z,100609.77
2019-04-19T14:15:33.095Z,100601.28
2019-04-19T14:18:24.677Z,100601.23
2019-04-19T14:21:08.722Z,100598.83
2019-04-19T14:23:51.292Z,100597.56
2019-04-19T14:26:37.009Z,100598.92
2019-04-19T14:29:07.430Z,100592.57
2019-04-19T14:31:50.401Z,100585.80
2019-04-19T14:34:33.268Z,100595.11
2019-04-19T14:37:23.069Z,100590.80
2019-04-19T14:40:35.362Z,100587.77
2019-04-19T14:43:18.629Z,100599.81
2019-04-19T14:46:02.615Z,100588.55
2019-04-19T14:48:45.268Z,100591.62
2019-04-19T14:51:27.907Z,100589.71
2019-04-19T14:54:00.328Z,100589.92
2019-04-19T14:56:50.421Z,100581.48
2019-04-19T14:59:40.799Z,100586.28
2019-04-19T15:02:45.012Z,100585.99
2019-04-19T15:08:43.235Z,100577.17
2019-04-19T15:11:33.922Z,100577.48
2019-04-19T15:14:24.111Z,100575.70
2019-04-19T15:17:15.807Z,100585.44
2019-04-19T15:19:59.291Z,100575.11
2019-04-19T15:22:42.394Z,100583.11
2019-04-19T15:25:32.416Z,100579.70
2019-04-19T15:28:22.736Z,100588.58
2019-04-19T15:31:06.011Z,100575.23
2019-04-19T15:33:42.874Z,100572.61
2019-04-19T15:36:13.609Z,100578.11
2019-04-19T15:39:03.925Z,100581.88
2019-04-19T15:41:46.688Z,100575.87
2019-04-19T15:44:36.951Z,100574.27
2019-04-19T15:47:28.608Z,100563.39
2019-04-19T15:53:09.584Z,100564.28
2019-04-19T15:56:00.072Z,100564.79
2019-04-19T15:58:50.999Z,100568.92
2019-04-19T16:02:00.327Z,100568.53
2019-04-19T16:05:10.215Z,100561.62
2019-04-19T16:11:22.742Z,100561.61
2019-04-19T16:14:12.619Z,100560.06
2019-04-19T16:17:03.150Z,100558.41
2019-04-19T16:19:47.088Z,100563.64
2019-04-19T16:22:30.148Z,100562.77
2019-04-19T16:27:59.021Z,100558.63
2019-04-19T16:30:40.287Z,100562.85
2019-04-19T16:33:30.110Z,100562.47
2019-04-19T16:36:21.062Z,100555.81
2019-04-19T16:39:03.190Z,100560.33
2019-04-19T16:41:53.175Z,100555.84
2019-04-19T16:44:43.881Z,100558.50
2019-04-19T16:47:33.718Z,100560.23
2019-04-19T16:50:24.796Z,100551.72
2019-04-19T16:53:06.906Z,100559.15
2019-04-19T16:55:49.799Z,100558.59
2019-04-19T16:58:32.936Z,100561.16
2019-04-19T17:01:23.254Z,100562.12
2019-04-19T17:04:13.494Z,100571.88
2019-04-19T17:06:50.975Z,100569.06
2019-04-19T17:09:41.295Z,100567.50
2019-04-19T17:12:12.800Z,100573.33
2019-04-19T17:18:26.818Z,100573.30
2019-04-19T17:21:07.946Z,100569.10
2019-04-19T17:23:53.181Z,100570.78
2019-04-19T17:26:31.116Z,100579.33
2019-04-19T17:29:14.943Z,100577.16
2019-04-19T17:31:52.014Z,100567.13
2019-04-19T17:34:34.619Z,100564.95
2019-04-19T17:37:24.556Z,100566.28
2019-04-19T17:40:14.674Z,100567.64
2019-04-19T17:43:05.518Z,100572.06
2019-04-19T17:45:48.592Z,100579.92
2019-04-19T17:48:30.460Z,100572.52
2019-04-19T17:51:20.374Z,100569.97
2019-04-19T17:54:18.712Z,100575.02
2019-04-19T17:56:53.367Z,100578.73
2019-04-19T17:59:43.180Z,100585.51
2019-04-19T18:02:33.038Z,100590.81
2019-04-19T18:05:24.289Z,100593.50
2019-04-19T18:08:06.448Z,100594.55
2019-04-19T18:10:59.002Z,100593.08
2019-04-19T18:16:50.433Z,100593.91
2019-04-19T18:19:36.239Z,100598.70
2019-04-19T18:22:18.840Z,100603.98
2019-04-19T18:24:57.018Z,100606.31
2019-04-19T18:27:38.613Z,100606.36
2019-04-19T18:33:32.195Z,100616.28
2019-04-19T18:36:25.675Z,100623.67
2019-04-19T18:42:10.114Z,100632.59
2019-04-19T18:45:02.934Z,100631.34
2019-04-19T18:47:38.951Z,100634.88
2019-04-19T18:50:22.846Z,100641.57
2019-04-19T18:53:22.938Z,100638.62
2019-04-19T18:56:13.283Z,100635.88
2019-04-19T18:58:48.110Z,100643.75
2019-04-19T19:04:39.013Z,100646.09
2019-04-19T19:07:31.167Z,100646.92
2019-04-19T19:10:50.435Z,100649.52
2019-04-19T19:13:32.002Z,100646.51
2019-04-19T19:16:04.119Z,100648.78
2019-04-19T19:18:47.516Z,100649.08
2019-04-19T19:21:26.813Z,100652.11
2019-04-19T19:24:27.420Z,100650.55
2019-04-19T19:27:04.485Z,100649.47
2019-04-19T19:29:34.624Z,100647.66
2019-04-19T19:35:30.443Z,100652.38
2019-04-19T19:38:26.240Z,100656.02
2019-04-19T19:41:22.826Z,100651.35
2019-04-19T19:43:57.687Z,100652.36
2019-04-19T19:49:52.205Z,100658.22
2019-04-19T19:52:18.678Z,100655.87
2019-04-19T19:55:02.662Z,100660.69
2019-04-19T19:57:38.477Z,100661.27
2019-04-19T20:01:07.194Z,100660.15
2019-04-19T20:03:37.663Z,100665.23
2019-04-19T20:06:17.332Z,100663.90
2019-04-19T20:08:59.812Z,100661.88
2019-04-19T20:11:41.657Z,100656.27
2019-04-19T20:14:31.318Z,100658.67
2019-04-19T20:17:11.023Z,100663.35
2019-04-19T20:19:51.505Z,100657.80
2019-04-19T20:22:40.444Z,100658.98
2019-04-19T20:26:08.592Z,100661.75
2019-04-19T20:28:37.766Z,100661.80
2019-04-19T20:31:26.195Z,100663.35
2019-04-19T20:34:02.672Z,100667.41
2019-04-19T20:36:43.281Z,100665.23
2019-04-19T20:39:27.133Z,100666.42
2019-04-19T20:42:07.491Z,100665.31
2019-04-19T20:44:51.407Z,100663.50
2019-04-19T20:47:32.671Z,100672.28
2019-04-19T20:50:22.819Z,100670.58
2019-04-19T20:56:29.308Z,100675.25
2019-04-19T20:58:44.666Z,100673.39
2019-04-19T21:01:16.937Z,100669.78
2019-04-19T21:03:55.027Z,100678.98
2019-04-19T21:06:41.261Z,100679.93
2019-04-19T21:09:24.785Z,100681.20
2019-04-19T21:12:04.643Z,100686.89
2019-04-19T21:14:48.825Z,100676.71
2019-04-19T21:17:36.427Z,100684.60
2019-04-19T21:23:27.419Z,100691.05
2019-04-19T21:26:20.349Z,100696.83
2019-04-19T21:28:59.318Z,100696.50
2019-04-19T21:31:48.701Z,100696.73
2019-04-19T21:34:30.107Z,100696.90
2019-04-19T21:37:08.728Z,100701.36
2019-04-19T21:39:48.734Z,100700.16
2019-04-19T21:42:35.674Z,100703.38
2019-04-19T21:48:13.090Z,100707.28
2019-04-19T21:51:03.980Z,100708.59
2019-04-19T21:53:44.551Z,100705.20
2019-04-19T21:56:18.678Z,100702.09
2019-04-19T21:59:02.463Z,100706.98
2019-04-19T22:04:51.192Z,100706.95
2019-04-19T22:07:44.237Z,100703.59
2019-04-19T22:10:23.940Z,100707.25
2019-04-19T22:13:06.420Z,100704.84
2019-04-19T22:15:50.471Z,100711.06
2019-04-19T22:18:26.014Z,100709.98
2019-04-19T22:21:16.646Z,100708.37
2019-04-19T22:24:00.395Z,100711.06
2019-04-19T22:26:47.530Z,100715.27
2019-04-19T22:29:27.392Z,100712.98
2019-04-19T22:32:14.913Z,100710.41
2019-04-19T22:34:52.706Z,100708.75
2019-04-19T22:37:43.233Z,100708.86
2019-04-19T22:40:34.518Z,100715.70
2019-04-19T22:43:18.545Z,100719.07
2019-04-19T22:46:05.014Z,100720.94
2019-04-19T22:48:51.624Z,100720.18
2019-04-19T22:51:27.353Z,100720.22
2019-04-19T22:54:10.790Z,100719.45
2019-04-19T22:57:01.993Z,100717.68
2019-04-19T22:59:47.135Z,100713.62
2019-04-19T23:02:37.312Z,100721.41
2019-04-19T23:05:25.949Z,100723.59
2019-04-19T23:08:02.768Z,100725.27
2019-04-19T23:10:50.977Z,100723.53
2019-04-19T23:13:25.761Z,100727.73
2019-04-19T23:16:15.790Z,100724.84
2019-04-19T23:18:55.340Z,100722.75
2019-04-19T23:21:33.019Z,100727.91
2019-04-19T23:24:16.715Z,100728.84
2019-04-19T23:27:13.594Z,100723.34
2019-04-19T23:29:42.546Z,100723.75
2019-04-19T23:32:36.184Z,100725.45
2019-04-19T23:35:29.502Z,100718.59
2019-04-19T23:38:17.364Z,100722.88
2019-04-19T23:40:53.104Z,100719.02
2019-04-19T23:43:38.727Z,100717.79
2019-04-19T23:46:24.149Z,100723.38
2019-04-19T23:49:08.199Z,100721.69
2019-04-19T23:51:45.231Z,100721.73
2019-04-19T23:54:29.603Z,100731.13
2019-04-19T23:57:17.917Z,100725.19
